Northpoint, Arkansas
Current Conditions -  °F | °C
As of 11:53 AM on Wednesday 28 Jan 2015 (Local Time) from KLIT Reporting Station
Few Clouds Few Clouds  
Wind Chill: 57°   Ceiling: Unl
Heat Index: 57°   Visibility: 10mi
Dew Point: 34°   Wind: 9mph
Humidity: 42%   Direction: 150°SSE
Pressure: 30.23"   Gusts: NA
Location:  34.8869°N, 92.5324°W
Report Text: KLIT 281753Z 15008KT 10SM FEW250 14/01 A3023 RMK AO2 SLP238 T01390011 10139 20017 58014
Loading
Personal Weather Stations






























Interactive Weather Map New forecast layout! Learn more

10-Day Weather Forecast

Advertisements
Track Severe Weather on mobile